Time;durP1;ratioP1;P1;durP2;ratioP2;P2;SDS_P1;SDS_P2;PMS_P1;PMS_P2;Temp;Humidity;BMP_temperature;BMP_pressure;BME280_temperature;BME280_humidity;BME280_pressure;Samples;Min_cycle;Max_cycle;Signal;HPM_P1;HPM_P2
2020/12/23 00:02:31;;;;;;;5.27;2.43;;;7.50;99.90;;;;;;5078967;28;20408;-83
2020/12/23 00:04:57;;;;;;;5.63;2.50;;;7.50;99.90;;;;;;5082733;28;20408;-83
2020/12/23 00:07:38;;;;;;;18.60;4.03;;;7.50;99.90;;;;;;5086459;28;20420;-82
2020/12/23 00:10:37;;;;;;;;;;;;;;;;;;;;;
2020/12/23 00:13:18;;;;;;;9.43;3.37;;;7.40;99.90;;;;;;5103604;28;20534;-82
2020/12/23 00:15:47;;;;;;;8.47;3.30;;;7.50;99.90;;;;;;5086826;28;20392;-83
2020/12/23 00:18:33;;;;;;;;;;;;;;;;;;;;;
2020/12/23 00:21:02;;;;;;;7.03;2.73;;;7.60;99.90;;;;;;5086124;28;20470;-83
2020/12/23 00:23:28;;;;;;;7.20;2.53;;;7.60;99.90;;;;;;5086661;28;20506;-83
2020/12/23 00:25:57;;;;;;;3.63;2.47;;;7.60;99.90;;;;;;5087182;28;20448;-83
2020/12/23 00:28:47;;;;;;;6.37;2.20;;;7.60;99.90;;;;;;5086077;28;20205;-83
2020/12/23 00:31:39;;;;;;;9.43;2.87;;;7.60;99.90;;;;;;5088691;28;20428;-83
2020/12/23 00:34:40;;;;;;;9.07;2.43;;;7.60;99.90;;;;;;5087919;28;20463;-83
2020/12/23 00:37:15;;;;;;;;;;;;;;;;;;;;;
2020/12/23 00:39:55;;;;;;;12.33;8.40;;;7.50;99.90;;;;;;5086782;28;20447;-83
2020/12/23 00:42:35;;;;;;;9.97;5.20;;;7.50;99.90;;;;;;5085827;28;20510;-82
2020/12/23 00:45:06;;;;;;;6.20;4.40;;;7.50;99.90;;;;;;5124355;28;20433;-83
2020/12/23 00:47:40;;;;;;;9.83;3.37;;;7.50;99.90;;;;;;5124871;28;20405;-82
2020/12/23 00:50:09;;;;;;;10.67;3.00;;;7.60;99.90;;;;;;5089294;28;20434;-82
2020/12/23 00:52:38;;;;;;;9.00;3.33;;;7.60;99.90;;;;;;5106167;28;20367;-84
2020/12/23 00:55:04;;;;;;;12.57;3.30;;;7.60;99.90;;;;;;5106503;28;20471;-83
2020/12/23 00:57:38;;;;;;;7.60;4.07;;;7.60;99.90;;;;;;5107284;28;20452;-84
2020/12/23 01:00:06;;;;;;;8.97;2.80;;;7.60;99.90;;;;;;5125156;28;20767;-84
2020/12/23 01:02:35;;;;;;;10.37;3.00;;;7.60;99.90;;;;;;5088873;28;20388;-83
2020/12/23 01:05:01;;;;;;;15.57;4.57;;;7.60;99.90;;;;;;5072720;28;20432;-84
2020/12/23 01:07:26;;;;;;;6.87;2.80;;;7.60;99.90;;;;;;5093384;28;20196;-81
2020/12/23 01:09:52;;;;;;;5.43;3.30;;;7.60;99.90;;;;;;5093386;28;20183;-83
2020/12/23 01:12:42;;;;;;;;;;;;;;;;;;;;;
2020/12/23 01:15:08;;;;;;;8.73;2.97;;;7.50;99.90;;;;;;5086523;28;20175;-82
2020/12/23 01:17:38;;;;;;;2.97;2.27;;;7.60;99.90;;;;;;5111129;28;20920;-83
2020/12/23 01:20:04;;;;;;;14.40;4.17;;;7.60;99.90;;;;;;5104735;28;20411;-83
2020/12/23 01:22:30;;;;;;;8.20;2.90;;;7.60;99.90;;;;;;5104879;28;20440;-83
2020/12/23 01:24:56;;;;;;;7.60;2.67;;;7.60;99.90;;;;;;5105458;28;20396;-84
2020/12/23 01:27:22;;;;;;;11.97;3.93;;;7.60;99.90;;;;;;5091416;28;20523;-84
2020/12/23 01:29:54;;;;;;;8.27;3.37;;;7.60;99.90;;;;;;5108557;28;20486;-84
2020/12/23 01:32:32;;;;;;;6.33;2.80;;;7.70;99.90;;;;;;5108520;28;20398;-82
2020/12/23 01:35:20;;;;;;;9.30;3.10;;;7.70;99.90;;;;;;5089832;28;20441;-84
2020/12/23 01:38:00;;;;;;;5.30;2.80;;;7.70;99.90;;;;;;5107802;28;20439;-84
2020/12/23 01:40:26;;;;;;;8.10;2.20;;;7.70;99.90;;;;;;5087923;28;20499;-84
2020/12/23 01:43:05;;;;;;;5.47;3.70;;;7.70;99.90;;;;;;5087806;28;20861;-83
2020/12/23 01:45:35;;;;;;;5.40;2.93;;;7.70;99.90;;;;;;5083708;28;20218;-84
2020/12/23 01:48:31;;;;;;;7.23;2.17;;;7.70;99.90;;;;;;5073174;28;20412;-83
2020/12/23 01:51:01;;;;;;;12.57;3.13;;;7.60;99.90;;;;;;5078220;28;20435;-83
2020/12/23 01:53:27;;;;;;;9.50;3.40;;;7.60;99.90;;;;;;5088884;28;20457;-83
2020/12/23 01:55:56;;;;;;;10.43;3.10;;;7.60;99.90;;;;;;5123392;28;20532;-83
2020/12/23 01:58:22;;;;;;;4.27;3.23;;;7.70;99.90;;;;;;5123410;28;20478;-82
2020/12/23 02:00:48;;;;;;;10.73;2.73;;;7.60;99.90;;;;;;5084476;28;20914;-83
2020/12/23 02:03:13;;;;;;;16.30;4.60;;;7.60;99.90;;;;;;5085014;28;20440;-83
2020/12/23 02:05:41;;;;;;;6.70;2.43;;;7.60;99.90;;;;;;5084927;28;20422;-83
2020/12/23 02:08:09;;;;;;;13.97;2.90;;;7.60;99.90;;;;;;5089043;28;20535;-83
2020/12/23 02:10:36;;;;;;;11.50;3.87;;;7.60;99.90;;;;;;5072254;28;20433;-85
2020/12/23 02:13:02;;;;;;;12.63;2.40;;;7.70;99.90;;;;;;5094665;28;20494;-83
2020/12/23 02:15:30;;;;;;;13.83;3.43;;;7.70;99.90;;;;;;5108981;28;20400;-83
2020/12/23 02:17:56;;;;;;;9.80;2.33;;;7.70;99.90;;;;;;5087279;28;20520;-84
2020/12/23 02:20:22;;;;;;;8.60;2.80;;;7.70;99.90;;;;;;5106857;28;20419;-84
2020/12/23 02:22:48;;;;;;;14.87;3.30;;;7.70;99.90;;;;;;5090905;28;20194;-83
2020/12/23 02:25:15;;;;;;;8.33;1.97;;;7.70;99.90;;;;;;5090805;28;20202;-82
2020/12/23 02:27:41;;;;;;;6.60;2.77;;;7.70;99.90;;;;;;5105800;28;20399;-83
2020/12/23 02:30:09;;;;;;;8.33;3.50;;;7.70;99.90;;;;;;5105874;28;20431;-82
2020/12/23 02:32:37;;;;;;;5.87;2.17;;;7.70;99.90;;;;;;5073390;28;20429;-82
2020/12/23 02:35:15;;;;;;;;;;;;;;;;;;;;;
2020/12/23 02:37:45;;;;;;;5.07;2.27;;;7.70;99.90;;;;;;5113494;28;20368;-82
2020/12/23 02:40:11;;;;;;;3.67;2.10;;;7.70;99.90;;;;;;5092583;28;20452;-83
2020/12/23 02:42:36;;;;;;;8.03;2.57;;;7.70;99.90;;;;;;5092155;28;20427;-82
2020/12/23 02:45:05;;;;;;;7.13;2.80;;;7.70;99.90;;;;;;5093700;28;20230;-83
2020/12/23 02:47:31;;;;;;;10.80;4.30;;;7.70;99.90;;;;;;5113301;28;20186;-83
2020/12/23 02:49:59;;;;;;;8.60;3.17;;;7.70;99.90;;;;;;5113148;28;20440;-82
2020/12/23 02:52:27;;;;;;;7.07;2.17;;;7.70;99.90;;;;;;5112172;28;20379;-82
2020/12/23 02:55:03;;;;;;;4.57;2.63;;;7.70;99.90;;;;;;5112463;28;20446;-82
2020/12/23 02:57:31;;;;;;;82.43;67.87;;;7.70;99.90;;;;;;5112320;28;20147;-82
2020/12/23 02:59:57;;;;;;;9.10;6.47;;;7.70;99.90;;;;;;5107809;28;20424;-82
2020/12/23 03:02:32;;;;;;;9.83;2.80;;;7.70;99.90;;;;;;5089511;28;20505;-82
2020/12/23 03:04:58;;;;;;;4.97;2.47;;;7.70;99.90;;;;;;5104015;28;20522;-82
2020/12/23 03:07:32;;;;;;;7.93;2.90;;;7.70;99.90;;;;;;5110199;28;20401;-82
2020/12/23 03:09:59;;;;;;;16.47;4.50;;;7.70;99.90;;;;;;5109253;28;20518;-82
2020/12/23 03:12:25;;;;;;;8.60;2.30;;;7.70;99.90;;;;;;5109818;28;20409;-83
2020/12/23 03:14:50;;;;;;;8.10;2.20;;;7.70;99.90;;;;;;5107779;28;20470;-81
2020/12/23 03:17:29;;;;;;;8.40;2.87;;;7.70;99.90;;;;;;5107990;28;20420;-82
2020/12/23 03:20:04;;;;;;;10.47;3.63;;;7.70;99.90;;;;;;5125096;28;20190;-84
2020/12/23 03:22:36;;;;;;;15.17;3.10;;;7.70;99.90;;;;;;5091977;28;20494;-83
2020/12/23 03:25:02;;;;;;;7.20;3.03;;;7.70;99.90;;;;;;5108124;28;20162;-83
2020/12/23 03:27:28;;;;;;;10.60;2.80;;;7.70;99.90;;;;;;5108385;28;20955;-82
2020/12/23 03:29:53;;;;;;;9.00;3.60;;;7.70;99.90;;;;;;5107614;28;20192;-82
2020/12/23 03:33:01;;;;;;;5.93;2.10;;;7.70;99.90;;;;;;5112487;28;20259;-84
2020/12/23 03:35:38;;;;;;;5.20;2.00;;;7.70;99.90;;;;;;5061549;28;20240;-82
2020/12/23 03:38:04;;;;;;;5.70;2.80;;;7.80;99.90;;;;;;5068782;28;20423;-83
2020/12/23 03:40:32;;;;;;;11.73;3.50;;;7.70;99.90;;;;;;5068832;28;20220;-83
2020/12/23 03:42:58;;;;;;;7.30;3.10;;;7.80;99.90;;;;;;5086933;28;20177;-83
2020/12/23 03:45:32;;;;;;;6.70;2.17;;;7.70;99.90;;;;;;5086722;28;20796;-83
2020/12/23 03:47:59;;;;;;;11.20;3.23;;;7.70;99.90;;;;;;5068306;28;20556;-83
2020/12/23 03:50:24;;;;;;;12.97;2.90;;;7.70;99.90;;;;;;5083136;28;20437;-84
2020/12/23 03:52:50;;;;;;;7.57;2.10;;;7.70;99.90;;;;;;5121002;28;20213;-84
2020/12/23 03:55:34;;;;;;;6.47;2.10;;;7.70;99.90;;;;;;5103252;28;20391;-83
2020/12/23 03:58:00;;;;;;;5.43;2.23;;;7.70;99.90;;;;;;5080002;28;20189;-83
2020/12/23 04:00:48;;;;;;;9.70;3.00;;;7.70;99.90;;;;;;5086841;28;20438;-83
2020/12/23 04:03:14;;;;;;;5.87;3.03;;;7.70;99.90;;;;;;5087181;28;20218;-83
2020/12/23 04:05:39;;;;;;;8.93;2.73;;;7.70;99.90;;;;;;5107371;28;20420;-83
2020/12/23 04:08:05;;;;;;;3.30;2.60;;;7.70;99.90;;;;;;5124061;28;20219;-82
2020/12/23 04:10:32;;;;;;;7.60;3.07;;;7.70;99.90;;;;;;5108894;28;20170;-83
2020/12/23 04:12:58;;;;;;;10.77;2.47;;;7.60;99.90;;;;;;5091030;28;21057;-83
2020/12/23 04:15:24;;;;;;;3.67;2.27;;;7.60;99.90;;;;;;5099848;28;20474;-83
2020/12/23 04:18:01;;;;;;;;;;;;;;;;;;;;;
2020/12/23 04:20:40;;;;;;;;;;;;;;;;;;;;;
2020/12/23 04:23:12;;;;;;;8.83;2.37;;;7.60;99.90;;;;;;5081884;28;20546;-83
2020/12/23 04:25:38;;;;;;;12.37;3.43;;;7.60;99.90;;;;;;5120733;28;20449;-82
2020/12/23 04:28:05;;;;;;;5.27;2.63;;;7.60;99.90;;;;;;5088075;28;20458;-82
2020/12/23 04:30:33;;;;;;;14.60;2.93;;;7.60;99.90;;;;;;5104432;28;20418;-82
2020/12/23 04:32:59;;;;;;;6.50;3.33;;;7.50;99.90;;;;;;5122845;28;20454;-82
2020/12/23 04:35:25;;;;;;;12.43;3.10;;;7.50;99.90;;;;;;5104261;28;20424;-82
2020/12/23 04:37:51;;;;;;;5.87;2.70;;;7.50;99.90;;;;;;5084258;28;20167;-82
2020/12/23 04:40:18;;;;;;;11.90;3.03;;;7.40;99.90;;;;;;5085463;28;20855;-82
2020/12/23 04:42:55;;;;;;;5.27;2.87;;;7.40;99.90;;;;;;5121385;28;20621;-82
2020/12/23 04:45:21;;;;;;;10.10;3.70;;;7.40;99.90;;;;;;5123880;28;20416;-82
2020/12/23 04:47:47;;;;;;;12.63;3.40;;;7.40;99.90;;;;;;5091764;28;20423;-83
2020/12/23 04:50:21;;;;;;;7.03;2.30;;;7.40;99.90;;;;;;5077598;28;20549;-84
2020/12/23 04:52:47;;;;;;;6.40;2.87;;;7.30;99.90;;;;;;5069242;28;20408;-83
2020/12/23 04:55:13;;;;;;;7.53;2.60;;;7.30;99.90;;;;;;5070118;28;20479;-83
2020/12/23 04:57:46;;;;;;;17.13;4.87;;;7.30;99.90;;;;;;5088543;28;20427;-85
2020/12/23 05:00:12;;;;;;;7.30;2.17;;;7.30;99.90;;;;;;5108976;28;20438;-83
2020/12/23 05:02:38;;;;;;;3.77;2.27;;;7.20;99.90;;;;;;5127621;28;20401;-83
2020/12/23 05:05:03;;;;;;;9.47;3.13;;;7.30;99.90;;;;;;5094427;28;20166;-83
2020/12/23 05:07:29;;;;;;;9.40;3.03;;;7.30;99.90;;;;;;5129417;28;20545;-83
2020/12/23 05:09:55;;;;;;;9.07;3.80;;;7.40;99.90;;;;;;5087108;28;20560;-82
2020/12/23 05:12:21;;;;;;;8.30;2.90;;;7.40;99.90;;;;;;5067394;28;20172;-82
2020/12/23 05:14:47;;;;;;;9.53;3.70;;;7.40;99.90;;;;;;5068865;28;20203;-81
2020/12/23 05:17:15;;;;;;;12.90;2.80;;;7.50;99.90;;;;;;5087395;28;20164;-83
2020/12/23 05:19:41;;;;;;;7.17;3.13;;;7.50;99.90;;;;;;5087062;28;20520;-83
2020/12/23 05:22:08;;;;;;;10.60;3.80;;;7.50;99.90;;;;;;5087942;28;20470;-83
2020/12/23 05:24:38;;;;;;;11.70;3.17;;;7.40;99.90;;;;;;5106667;28;20416;-83
2020/12/23 05:27:05;;;;;;;10.40;2.67;;;7.40;99.90;;;;;;5092059;28;20403;-83
2020/12/23 05:29:31;;;;;;;12.80;3.90;;;7.40;99.90;;;;;;5116031;28;20429;-84
2020/12/23 05:31:57;;;;;;;9.47;3.07;;;7.40;99.90;;;;;;5115133;28;20458;-83
2020/12/23 05:34:25;;;;;;;8.30;4.90;;;7.50;99.90;;;;;;5081677;28;20475;-85
2020/12/23 05:36:51;;;;;;;10.80;4.07;;;7.40;99.90;;;;;;5073312;28;20427;-82
2020/12/23 05:39:17;;;;;;;11.70;4.17;;;7.40;99.90;;;;;;5080537;28;20445;-83
2020/12/23 05:41:46;;;;;;;11.57;3.50;;;7.40;99.90;;;;;;5077875;28;20424;-82
2020/12/23 05:44:20;;;;;;;7.00;3.33;;;7.40;99.90;;;;;;5083155;28;20477;-82
2020/12/23 05:46:49;;;;;;;7.93;5.20;;;7.40;99.90;;;;;;5099362;28;20424;-82
2020/12/23 05:49:21;;;;;;;6.87;3.57;;;7.40;99.90;;;;;;5084026;28;20458;-83
2020/12/23 05:51:49;;;;;;;5.97;3.37;;;7.40;99.90;;;;;;5103892;28;20450;-81
2020/12/23 05:54:21;;;;;;;9.00;4.43;;;7.40;99.90;;;;;;5090481;28;20475;-81
2020/12/23 05:56:51;;;;;;;10.47;4.30;;;7.40;99.90;;;;;;5079449;28;20427;-82
2020/12/23 05:59:17;;;;;;;14.90;4.47;;;7.40;99.90;;;;;;5094824;28;20445;-83
2020/12/23 06:01:45;;;;;;;9.00;4.30;;;7.40;99.90;;;;;;5112215;28;20405;-83
2020/12/23 06:04:15;;;;;;;13.90;3.10;;;7.40;99.90;;;;;;5107940;28;20518;-83
2020/12/23 06:06:45;;;;;;;9.50;4.33;;;7.40;99.90;;;;;;5084774;28;20432;-83
2020/12/23 06:09:11;;;;;;;12.07;4.17;;;7.40;99.90;;;;;;5081212;28;20534;-84
2020/12/23 06:11:44;;;;;;;3.93;3.33;;;7.40;99.90;;;;;;5048461;28;20421;-83
2020/12/23 06:14:21;;;;;;;15.87;5.73;;;7.40;99.90;;;;;;5078132;28;20490;-83
2020/12/23 06:16:47;;;;;;;16.07;4.00;;;7.40;99.90;;;;;;5100074;28;20431;-83
2020/12/23 06:19:38;;;;;;;12.83;5.00;;;7.40;99.90;;;;;;5083628;28;20447;-83
2020/12/23 06:22:04;;;;;;;9.00;4.50;;;7.50;99.90;;;;;;5083306;28;20182;-83
2020/12/23 06:24:33;;;;;;;6.67;3.73;;;7.50;99.90;;;;;;5080138;28;20429;-82
2020/12/23 06:27:01;;;;;;;8.83;4.43;;;7.50;99.90;;;;;;5081069;28;20427;-82
2020/12/23 06:29:29;;;;;;;17.70;5.20;;;7.50;99.90;;;;;;5083230;28;20433;-82
2020/12/23 06:32:03;;;;;;;10.03;5.17;;;7.50;99.90;;;;;;5066143;28;20433;-83
2020/12/23 06:34:39;;;;;;;13.37;5.33;;;7.50;99.90;;;;;;5098911;28;20489;-82
2020/12/23 06:37:24;;;;;;;14.23;4.83;;;7.50;99.90;;;;;;5103305;28;20427;-83
2020/12/23 06:39:50;;;;;;;15.77;5.40;;;7.50;99.90;;;;;;5053747;28;20434;-83
2020/12/23 06:42:16;;;;;;;15.60;4.50;;;7.40;99.90;;;;;;5071705;28;20413;-81
2020/12/23 06:44:46;;;;;;;10.77;4.80;;;7.40;99.90;;;;;;5086744;28;20461;-83
2020/12/23 06:47:13;;;;;;;10.00;5.60;;;7.40;99.90;;;;;;5063787;28;20222;-83
2020/12/23 06:49:44;;;;;;;12.53;4.60;;;7.40;99.90;;;;;;5075367;28;20449;-83
2020/12/23 06:52:21;;;;;;;16.10;6.17;;;7.50;99.90;;;;;;5076877;28;20417;-83
2020/12/23 06:55:08;;;;;;;11.13;6.13;;;7.50;99.90;;;;;;5079169;28;20450;-83
2020/12/23 06:57:39;;;;;;;10.37;5.07;;;7.50;99.90;;;;;;5091058;28;20431;-85
2020/12/23 07:00:21;;;;;;;9.80;3.97;;;7.50;99.90;;;;;;5085522;28;20444;-85
2020/12/23 07:02:49;;;;;;;10.23;4.70;;;7.40;99.90;;;;;;5076367;28;20440;-84
2020/12/23 07:05:21;;;;;;;15.43;7.17;;;7.40;99.90;;;;;;5090799;28;20750;-84
2020/12/23 07:07:56;;;;;;;12.17;5.20;;;7.40;99.90;;;;;;5071103;28;20429;-81
2020/12/23 07:10:27;;;;;;;10.70;4.80;;;7.40;99.90;;;;;;5084938;28;20421;-81
2020/12/23 07:13:11;;;;;;;13.47;6.00;;;7.50;99.90;;;;;;5087148;28;20514;-82
2020/12/23 07:15:39;;;;;;;16.90;8.07;;;7.50;99.90;;;;;;5097352;28;20423;-82
2020/12/23 07:18:07;;;;;;;6.47;4.07;;;7.50;99.90;;;;;;5063701;28;20526;-81
2020/12/23 07:20:46;;;;;;;15.80;5.23;;;7.50;99.90;;;;;;5100338;28;20431;-82
2020/12/23 07:23:17;;;;;;;16.50;6.63;;;7.50;99.90;;;;;;5099934;28;20440;-82
2020/12/23 07:25:47;;;;;;;16.20;7.37;;;7.40;99.90;;;;;;5081807;28;20854;-81
2020/12/23 07:28:19;;;;;;;17.30;4.93;;;7.50;99.90;;;;;;5083679;28;20496;-80
2020/12/23 07:30:46;;;;;;;17.97;6.20;;;7.40;99.90;;;;;;5070287;28;20412;-81
2020/12/23 07:33:19;;;;;;;19.63;5.77;;;7.50;99.90;;;;;;5101218;28;20962;-81
2020/12/23 07:35:46;;;;;;;17.57;5.30;;;7.40;99.90;;;;;;5070723;28;20412;-81
2020/12/23 07:38:13;;;;;;;11.47;7.83;;;7.40;99.90;;;;;;5082976;28;20425;-80
2020/12/23 07:40:39;;;;;;;10.90;5.10;;;7.40;99.90;;;;;;5068537;28;20457;-81
2020/12/23 07:43:05;;;;;;;16.90;6.70;;;7.50;99.90;;;;;;5050540;28;20420;-82
2020/12/23 07:45:36;;;;;;;23.23;4.97;;;7.50;99.90;;;;;;5086795;28;20472;-80
2020/12/23 07:48:09;;;;;;;15.00;4.67;;;7.50;99.90;;;;;;5078437;28;20418;-80
2020/12/23 07:50:39;;;;;;;16.73;4.40;;;7.50;99.90;;;;;;5081737;28;20388;-80
2020/12/23 07:53:12;;;;;;;7.57;4.63;;;7.40;99.90;;;;;;5063026;28;20501;-80
2020/12/23 07:55:39;;;;;;;15.50;5.10;;;7.50;99.90;;;;;;5064472;28;20766;-82
2020/12/23 07:58:05;;;;;;;15.77;5.30;;;7.50;99.90;;;;;;5085815;28;20457;-83
2020/12/23 08:00:31;;;;;;;10.07;4.70;;;7.50;99.90;;;;;;5102224;28;20436;-82
2020/12/23 08:02:57;;;;;;;14.73;5.13;;;7.60;99.90;;;;;;5083923;28;20434;-82
2020/12/23 08:05:23;;;;;;;13.27;6.57;;;7.60;99.90;;;;;;5100079;28;20497;-81
2020/12/23 08:07:50;;;;;;;13.53;6.70;;;7.60;99.90;;;;;;5078410;28;20178;-82
2020/12/23 08:10:19;;;;;;;11.43;7.27;;;7.60;99.90;;;;;;5082765;28;20248;-82
2020/12/23 08:12:58;;;;;;;16.47;7.20;;;7.70;99.90;;;;;;5099780;28;20429;-82
2020/12/23 08:15:28;;;;;;;13.33;5.10;;;7.70;99.90;;;;;;5081207;28;20817;-81
2020/12/23 08:18:14;;;;;;;18.30;6.17;;;7.80;99.90;;;;;;5084048;28;20425;-83
2020/12/23 08:20:39;;;;;;;10.80;6.80;;;7.70;99.90;;;;;;5080344;28;20415;-82
2020/12/23 08:23:05;;;;;;;15.90;6.00;;;7.70;99.90;;;;;;5066478;28;20475;-81
2020/12/23 08:25:32;;;;;;;10.20;5.93;;;7.80;99.90;;;;;;5083572;28;20435;-82
2020/12/23 08:27:59;;;;;;;18.47;7.63;;;7.80;99.90;;;;;;5100282;28;20580;-82
2020/12/23 08:30:27;;;;;;;17.17;7.23;;;7.90;99.90;;;;;;5081400;28;20435;-81
2020/12/23 08:33:16;;;;;;;17.00;5.93;;;7.90;99.90;;;;;;5102260;28;20438;-83
2020/12/23 08:35:44;;;;;;;12.37;6.80;;;7.80;99.90;;;;;;5053389;28;20981;-82
2020/12/23 08:38:21;;;;;;;15.17;5.90;;;7.90;99.90;;;;;;5103368;28;20473;-82
2020/12/23 08:41:03;;;;;;;15.60;6.80;;;8.00;99.90;;;;;;5097787;28;20556;-82
2020/12/23 08:43:46;;;;;;;13.43;7.50;;;8.00;99.90;;;;;;5118147;28;20454;-83
2020/12/23 08:46:23;;;;;;;15.53;5.93;;;8.00;99.90;;;;;;5096962;28;20412;-80
2020/12/23 08:48:50;;;;;;;11.60;4.40;;;8.10;99.90;;;;;;5076682;28;20496;-83
2020/12/23 08:51:25;;;;;;;10.23;5.43;;;8.10;99.90;;;;;;5084074;28;20451;-82
2020/12/23 08:53:57;;;;;;;14.60;6.90;;;8.20;99.90;;;;;;5084088;28;20801;-82
2020/12/23 08:56:23;;;;;;;10.33;4.93;;;8.30;99.90;;;;;;5086967;28;20787;-82
2020/12/23 08:59:06;;;;;;;15.80;6.17;;;8.30;99.90;;;;;;5087651;28;20503;-83
2020/12/23 09:01:48;;;;;;;16.00;5.30;;;8.40;99.90;;;;;;5098594;28;20315;-82
2020/12/23 09:04:15;;;;;;;6.43;4.60;;;8.40;99.90;;;;;;5094512;28;20422;-82
2020/12/23 09:06:42;;;;;;;14.77;5.13;;;8.30;99.90;;;;;;5085645;28;20410;-85
2020/12/23 09:09:24;;;;;;;13.03;3.90;;;8.40;99.90;;;;;;5083332;28;20427;-83
2020/12/23 09:11:54;;;;;;;11.63;5.40;;;8.40;99.90;;;;;;5105965;28;20411;-81
2020/12/23 09:14:21;;;;;;;10.23;5.53;;;8.40;99.90;;;;;;5088505;28;20813;-82
2020/12/23 09:16:53;;;;;;;8.47;4.90;;;8.40;99.90;;;;;;5087214;28;20411;-82
2020/12/23 09:19:19;;;;;;;18.27;7.30;;;8.40;99.90;;;;;;5086460;28;20811;-83
2020/12/23 09:21:55;;;;;;;14.50;4.30;;;8.40;99.90;;;;;;5086001;28;20403;-83
2020/12/23 09:24:22;;;;;;;9.07;4.57;;;8.40;99.90;;;;;;5086606;28;20178;-82
2020/12/23 09:27:14;;;;;;;9.67;6.47;;;8.40;99.90;;;;;;5085794;28;20416;-82
2020/12/23 09:29:45;;;;;;;13.07;7.10;;;8.40;99.90;;;;;;5072772;28;20428;-83
2020/12/23 09:32:22;;;;;;;18.20;8.87;;;8.40;99.90;;;;;;5107351;28;20463;-83
2020/12/23 09:35:00;;;;;;;;;;;;;;;;;;;;;
2020/12/23 09:37:53;;;;;;;;;;;;;;;;;;;;;
2020/12/23 09:41:01;;;;;;;20.07;8.80;;;8.50;99.90;;;;;;5083274;28;20414;-82
2020/12/23 09:43:28;;;;;;;16.17;8.40;;;8.50;99.90;;;;;;5068475;28;20417;-82
2020/12/23 09:46:01;;;;;;;12.10;6.73;;;8.60;99.90;;;;;;5083972;28;20476;-82
2020/12/23 09:48:28;;;;;;;9.53;6.00;;;8.70;99.90;;;;;;5086118;28;20449;-82
2020/12/23 09:50:55;;;;;;;16.07;6.23;;;8.80;99.90;;;;;;5087017;28;20426;-84
2020/12/23 09:53:23;;;;;;;19.73;6.93;;;9.00;99.90;;;;;;5066738;28;20491;-82
2020/12/23 09:56:02;;;;;;;;;;;;;;;;;;;;;
2020/12/23 09:58:29;;;;;;;13.53;5.43;;;9.10;99.90;;;;;;5086618;28;20439;-81
2020/12/23 10:00:55;;;;;;;10.40;5.77;;;9.20;99.90;;;;;;5084946;28;20390;-83
2020/12/23 10:03:21;;;;;;;12.00;6.07;;;9.30;99.90;;;;;;5085634;28;20433;-82
2020/12/23 10:05:47;;;;;;;16.80;8.03;;;9.40;99.90;;;;;;5102688;28;20190;-82
2020/12/23 10:08:13;;;;;;;13.10;6.37;;;9.50;99.90;;;;;;5084460;28;20238;-82
2020/12/23 10:10:39;;;;;;;13.63;6.13;;;9.40;99.90;;;;;;5101018;28;20880;-82
2020/12/23 10:13:05;;;;;;;16.50;6.13;;;9.20;99.90;;;;;;5100541;28;20214;-82
2020/12/23 10:15:31;;;;;;;10.10;5.50;;;9.10;99.90;;;;;;5100416;28;20417;-83
2020/12/23 10:17:57;;;;;;;11.10;5.73;;;9.00;99.90;;;;;;5082418;28;20418;-83
2020/12/23 10:20:26;;;;;;;6.40;5.17;;;8.80;99.90;;;;;;5101888;28;20399;-81
2020/12/23 10:22:52;;;;;;;9.60;5.10;;;8.90;99.90;;;;;;5101502;28;20423;-81
2020/12/23 10:25:18;;;;;;;13.63;6.00;;;8.90;99.90;;;;;;5067326;28;20426;-81
2020/12/23 10:27:44;;;;;;;9.03;5.17;;;8.80;99.90;;;;;;5101557;28;20158;-82
2020/12/23 10:30:09;;;;;;;11.30;5.20;;;8.90;99.90;;;;;;5101972;28;20222;-82
2020/12/23 10:32:35;;;;;;;14.20;7.60;;;8.90;99.90;;;;;;5085081;28;20403;-83
2020/12/23 10:35:02;;;;;;;18.97;8.03;;;8.90;99.90;;;;;;5066961;28;20197;-83
2020/12/23 10:37:28;;;;;;;11.67;6.10;;;9.00;99.90;;;;;;5065765;28;20411;-82
2020/12/23 10:39:54;;;;;;;7.20;5.10;;;9.00;99.90;;;;;;5100994;28;20433;-82
2020/12/23 10:42:22;;;;;;;11.00;6.83;;;8.90;99.90;;;;;;5099749;28;20218;-82
2020/12/23 10:44:48;;;;;;;13.43;5.57;;;9.00;99.90;;;;;;5082193;28;20545;-81
2020/12/23 10:47:17;;;;;;;5.80;4.93;;;8.90;99.90;;;;;;5101457;28;20395;-81
2020/12/23 10:49:43;;;;;;;12.83;5.90;;;8.90;99.90;;;;;;5083202;28;20492;-83
2020/12/23 10:52:18;;;;;;;13.27;6.23;;;8.80;99.90;;;;;;5086198;28;20485;-82
2020/12/23 10:54:44;;;;;;;15.00;7.63;;;8.90;99.90;;;;;;5085472;28;20558;-82
2020/12/23 10:57:13;;;;;;;17.07;7.40;;;8.70;99.90;;;;;;5100002;28;20413;-82
2020/12/23 11:00:05;;;;;;;;;;;;;;;;;;;;;
2020/12/23 11:02:37;;;;;;;21.00;7.17;;;8.70;99.90;;;;;;5101282;28;20529;-84
2020/12/23 11:05:12;;;;;;;16.73;8.73;;;8.70;99.90;;;;;;5082089;28;20416;-83
2020/12/23 11:07:41;;;;;;;13.80;7.60;;;8.70;99.90;;;;;;5063406;28;20854;-80
2020/12/23 11:10:07;;;;;;;11.77;5.70;;;8.80;99.90;;;;;;5081504;28;20214;-81
2020/12/23 11:12:32;;;;;;;17.23;7.90;;;8.80;99.90;;;;;;5099983;28;20786;-82
2020/12/23 11:15:00;;;;;;;15.70;6.87;;;8.80;99.90;;;;;;5100553;28;20188;-81
2020/12/23 11:17:26;;;;;;;13.53;7.00;;;8.90;99.90;;;;;;5082885;28;20165;-81
2020/12/23 11:19:54;;;;;;;17.30;6.77;;;8.90;99.90;;;;;;5086445;28;20431;-81
2020/12/23 11:22:36;;;;;;;13.33;7.10;;;8.90;99.90;;;;;;5110929;28;20522;-81
2020/12/23 11:25:24;;;;;;;12.30;7.40;;;8.80;99.90;;;;;;5112364;28;20484;-83
2020/12/23 11:27:53;;;;;;;12.97;7.00;;;8.70;99.90;;;;;;5075066;28;20471;-85
2020/12/23 11:30:22;;;;;;;10.90;6.50;;;8.80;99.90;;;;;;5094985;28;20427;-82
2020/12/23 11:32:51;;;;;;;15.27;6.33;;;8.80;99.90;;;;;;5095798;28;20484;-82
2020/12/23 11:35:20;;;;;;;9.13;5.43;;;8.90;99.90;;;;;;5093898;28;20505;-83
2020/12/23 11:37:48;;;;;;;14.73;6.60;;;8.90;99.90;;;;;;5094711;28;20425;-82
2020/12/23 11:40:14;;;;;;;6.50;4.60;;;9.00;99.90;;;;;;5095511;28;20433;-83
2020/12/23 11:43:06;;;;;;;17.60;7.63;;;9.00;99.90;;;;;;5091931;28;20455;-81
2020/12/23 11:45:43;;;;;;;14.23;7.60;;;9.00;99.90;;;;;;5071350;28;20419;-83
2020/12/23 11:48:09;;;;;;;11.23;6.60;;;9.00;99.90;;;;;;5085659;28;20507;-84
2020/12/23 11:50:35;;;;;;;15.97;8.33;;;9.00;99.90;;;;;;5083941;28;20873;-83
2020/12/23 11:53:01;;;;;;;12.47;7.63;;;9.00;99.90;;;;;;5086213;28;20169;-83
2020/12/23 11:55:29;;;;;;;12.70;6.30;;;8.90;99.90;;;;;;5087860;28;20475;-83
2020/12/23 11:57:55;;;;;;;10.27;7.73;;;8.80;99.90;;;;;;5071221;28;20165;-82
2020/12/23 12:00:21;;;;;;;14.10;8.17;;;8.70;99.90;;;;;;5088457;28;20434;-82
2020/12/23 12:02:47;;;;;;;12.50;7.40;;;8.70;99.90;;;;;;5087860;28;20204;-82
2020/12/23 12:05:13;;;;;;;21.80;10.67;;;8.70;99.90;;;;;;5088838;28;20167;-83
2020/12/23 12:07:42;;;;;;;13.97;6.50;;;8.80;99.90;;;;;;5090229;28;20592;-82
2020/12/23 12:10:08;;;;;;;13.53;8.53;;;8.80;99.90;;;;;;5087278;28;20442;-82
2020/12/23 12:12:35;;;;;;;12.77;8.60;;;8.70;99.90;;;;;;5106790;28;20407;-81
2020/12/23 12:15:04;;;;;;;12.20;7.27;;;8.70;99.90;;;;;;5075876;28;20454;-81
2020/12/23 12:17:30;;;;;;;14.53;6.23;;;8.70;99.90;;;;;;5093483;28;20788;-82
2020/12/23 12:19:58;;;;;;;10.97;6.53;;;8.60;99.90;;;;;;5092607;28;20458;-81
2020/12/23 12:22:25;;;;;;;17.47;7.33;;;8.60;99.90;;;;;;5071321;28;20221;-84
2020/12/23 12:24:50;;;;;;;9.60;7.40;;;8.60;99.90;;;;;;5085332;28;20450;-83
2020/12/23 12:27:16;;;;;;;15.33;9.47;;;8.50;99.90;;;;;;5103417;28;20420;-84
2020/12/23 12:29:42;;;;;;;16.50;9.70;;;8.50;99.90;;;;;;5087546;28;20203;-82
2020/12/23 12:32:08;;;;;;;14.73;11.30;;;8.50;99.90;;;;;;5104938;28;20449;-82
2020/12/23 12:34:44;;;;;;;20.40;14.30;;;8.50;99.90;;;;;;5086078;28;20445;-83
2020/12/23 12:37:12;;;;;;;14.77;9.33;;;8.60;99.90;;;;;;5085956;28;20463;-82
2020/12/23 12:39:38;;;;;;;16.50;8.00;;;8.70;99.90;;;;;;5085514;28;20447;-83
2020/12/23 12:42:04;;;;;;;13.20;9.23;;;8.70;99.90;;;;;;5067249;28;20473;-82
2020/12/23 12:44:30;;;;;;;12.03;8.30;;;8.70;99.90;;;;;;5103198;28;20433;-83
2020/12/23 12:46:56;;;;;;;16.13;10.93;;;8.70;99.90;;;;;;5102596;28;20407;-83
2020/12/23 12:49:25;;;;;;;15.17;8.97;;;8.70;99.90;;;;;;5085382;28;20200;-84
2020/12/23 12:52:01;;;;;;;12.60;8.27;;;8.70;99.90;;;;;;5088045;28;20622;-81
2020/12/23 12:54:27;;;;;;;16.57;10.30;;;8.60;99.90;;;;;;5104405;28;20462;-84
2020/12/23 12:57:00;;;;;;;16.67;12.70;;;8.60;99.90;;;;;;5084400;28;20169;-83
2020/12/23 12:59:26;;;;;;;26.00;10.10;;;8.60;99.90;;;;;;5069757;28;20182;-83
2020/12/23 13:01:52;;;;;;;20.53;11.50;;;8.60;99.90;;;;;;5085160;28;20409;-80
2020/12/23 13:04:34;;;;;;;15.90;10.60;;;8.60;99.90;;;;;;5085905;28;20433;-83
2020/12/23 13:07:00;;;;;;;17.50;8.20;;;8.50;99.90;;;;;;5085200;28;20583;-83
2020/12/23 13:09:26;;;;;;;14.10;8.20;;;8.40;99.90;;;;;;5068414;28;20455;-81
2020/12/23 13:12:14;;;;;;;21.40;9.80;;;8.50;99.90;;;;;;5087691;28;20223;-83
2020/12/23 13:14:40;;;;;;;16.10;8.60;;;8.50;99.90;;;;;;5086268;28;20474;-83
2020/12/23 13:17:06;;;;;;;19.73;9.73;;;8.60;99.90;;;;;;5105543;28;20415;-83
2020/12/23 13:19:35;;;;;;;17.07;9.70;;;8.60;99.90;;;;;;5087750;28;20443;-83
2020/12/23 13:22:01;;;;;;;16.40;9.47;;;8.50;99.90;;;;;;5106510;28;20416;-84